Terminal Aerodrome Forecast
Issued by NWS

Home | Current Version | Previous Version | Graphics & Text | Print | Product List | Glossary On
Versions: 1 2 3 4 5 6 7 8 9 10 11 12 13 14 15 16 17 18 19 20 21 22 23 24 25 26 27 28 29 30 31 32 33 34 35
000
FTUS43 KLOT 011407 AAA
TAFORD
TAF AMD
KORD 011407Z 0114/0218 04007KT P6SM BKN025
     FM011700 04009KT P6SM SCT025 BKN180
     FM011900 05012KT P6SM SCT030 BKN180
     FM020000 03005KT P6SM BKN120
     FM021400 05010KT P6SM SCT250=

USA.gov is the U.S. government's official web portal to all federal, state and local government web resources and services.